Time;durP1;ratioP1;P1;durP2;ratioP2;P2;SDS_P1;SDS_P2;PMS_P1;PMS_P2;Temp;Humidity;BMP_temperature;BMP_pressure;BME280_temperature;BME280_humidity;BME280_pressure;Samples;Min_cycle;Max_cycle;Signal;HPM_P1;HPM_P2
2021/06/28 00:00:13;;;;;;;2.83;2.63;;;22.90;62.90;;;;;;5054352;28;20242;-66
2021/06/28 00:02:39;;;;;;;3.15;2.95;;;22.90;62.90;;;;;;5053991;28;20179;-66
2021/06/28 00:05:06;;;;;;;3.47;3.17;;;22.90;62.90;;;;;;5053393;28;20187;-66
2021/06/28 00:07:31;;;;;;;2.92;2.72;;;22.90;62.90;;;;;;5053767;28;20232;-66
2021/06/28 00:09:57;;;;;;;3.30;3.00;;;22.90;62.90;;;;;;5054033;28;20171;-66
2021/06/28 00:12:22;;;;;;;2.85;2.65;;;22.80;62.80;;;;;;5053155;28;20221;-66
2021/06/28 00:14:47;;;;;;;3.03;2.83;;;22.90;62.90;;;;;;5053747;28;20626;-66
2021/06/28 00:17:13;;;;;;;3.45;3.08;;;22.80;62.90;;;;;;5053866;28;20214;-65
2021/06/28 00:19:38;;;;;;;2.92;2.72;;;22.90;62.90;;;;;;5052914;28;20171;-65
2021/06/28 00:22:04;;;;;;;2.70;2.50;;;22.90;62.90;;;;;;5053769;28;20224;-65
2021/06/28 00:24:29;;;;;;;3.10;2.90;;;22.90;62.90;;;;;;5053349;28;20760;-65
2021/06/28 00:26:55;;;;;;;3.10;2.80;;;22.80;62.80;;;;;;5052751;28;20701;-65
2021/06/28 00:29:22;;;;;;;3.10;2.90;;;22.80;62.80;;;;;;5053363;28;20305;-65
2021/06/28 00:31:51;;;;;;;3.20;3.00;;;22.80;62.90;;;;;;5052719;28;20258;-65
2021/06/28 00:34:16;;;;;;;3.10;2.90;;;22.80;62.80;;;;;;5053580;28;20614;-66
2021/06/28 00:36:42;;;;;;;3.50;3.30;;;22.80;62.80;;;;;;5053101;28;20231;-67
2021/06/28 00:39:08;;;;;;;2.95;2.75;;;22.80;62.80;;;;;;5052531;28;20313;-67
2021/06/28 00:41:33;;;;;;;3.38;3.10;;;22.80;62.90;;;;;;5052926;28;20171;-66
2021/06/28 00:43:59;;;;;;;3.40;3.20;;;22.80;62.80;;;;;;5053108;28;20183;-66
2021/06/28 00:46:24;;;;;;;3.22;2.92;;;22.80;62.80;;;;;;5052386;28;20652;-66
2021/06/28 00:48:50;;;;;;;3.58;3.28;;;22.80;62.80;;;;;;5052966;28;20179;-65
2021/06/28 00:51:15;;;;;;;3.65;3.35;;;22.80;62.80;;;;;;5053138;28;20179;-66
2021/06/28 00:53:41;;;;;;;3.67;3.38;;;22.80;62.80;;;;;;5034266;28;20643;-65
2021/06/28 00:56:09;;;;;;;2.60;2.40;;;22.80;62.80;;;;;;5035254;28;20179;-66
2021/06/28 00:58:39;;;;;;;3.13;2.78;;;22.80;62.70;;;;;;5035329;28;20266;-66
2021/06/28 01:01:05;;;;;;;4.30;3.28;;;22.80;62.80;;;;;;5052138;28;20178;-66
2021/06/28 01:03:30;;;;;;;3.28;3.08;;;22.80;62.80;;;;;;5052693;28;20590;-66
2021/06/28 01:05:56;;;;;;;3.20;3.00;;;22.80;62.80;;;;;;5052755;28;20171;-65
2021/06/28 01:08:21;;;;;;;2.85;2.65;;;22.80;62.80;;;;;;5052170;28;20172;-65
2021/06/28 01:10:47;;;;;;;3.55;3.25;;;22.80;62.80;;;;;;5052398;28;20171;-65
2021/06/28 01:13:12;;;;;;;3.17;2.95;;;22.80;62.80;;;;;;5034774;28;20170;-66
2021/06/28 01:15:39;;;;;;;3.05;2.75;;;22.80;62.80;;;;;;5051941;28;20182;-66
2021/06/28 01:18:04;;;;;;;2.72;2.53;;;22.80;62.80;;;;;;5052569;28;20766;-65
2021/06/28 01:20:30;;;;;;;2.67;2.47;;;22.80;62.80;;;;;;5052450;28;20220;-65
2021/06/28 01:23:11;;;;;;;3.15;2.63;;;22.80;62.80;;;;;;5051921;28;20178;-65
2021/06/28 01:25:36;;;;;;;3.05;2.75;;;22.80;62.90;;;;;;5034489;28;20179;-65
2021/06/28 01:28:02;;;;;;;2.58;2.38;;;22.80;62.90;;;;;;5034415;28;20182;-65
2021/06/28 01:30:29;;;;;;;2.92;2.72;;;22.80;62.80;;;;;;5052296;28;20234;-65
2021/06/28 01:32:55;;;;;;;3.00;2.80;;;22.80;62.90;;;;;;5052440;28;20182;-66
2021/06/28 01:35:21;;;;;;;2.97;2.78;;;22.80;62.90;;;;;;5051619;28;20543;-66
2021/06/28 01:37:46;;;;;;;2.75;2.55;;;22.70;63.70;;;;;;5051780;28;20213;-66
2021/06/28 01:40:12;;;;;;;2.97;2.78;;;22.80;63.00;;;;;;5052169;28;20189;-66
2021/06/28 01:42:38;;;;;;;3.15;2.95;;;22.70;62.90;;;;;;5051298;28;20281;-66
2021/06/28 01:45:05;;;;;;;3.03;2.83;;;22.80;63.00;;;;;;5052284;28;20215;-66
2021/06/28 01:47:31;;;;;;;2.75;2.55;;;22.70;62.90;;;;;;5051790;28;20181;-66
2021/06/28 01:49:56;;;;;;;3.63;3.33;;;22.70;62.90;;;;;;5051330;28;20172;-65
2021/06/28 01:52:22;;;;;;;2.90;2.70;;;22.70;62.90;;;;;;5051395;28;20183;-65
2021/06/28 01:54:47;;;;;;;3.00;2.80;;;22.70;62.90;;;;;;5051904;28;20266;-66
2021/06/28 01:57:13;;;;;;;2.88;2.67;;;22.70;62.90;;;;;;5051237;28;20211;-66
2021/06/28 01:59:38;;;;;;;2.80;2.63;;;22.70;62.90;;;;;;5051721;28;20502;-66
2021/06/28 02:02:04;;;;;;;3.20;3.00;;;22.70;62.90;;;;;;5052083;28;20217;-66
2021/06/28 02:04:30;;;;;;;3.10;2.90;;;22.70;62.90;;;;;;5051381;28;20700;-66
2021/06/28 02:06:56;;;;;;;3.20;3.00;;;22.70;62.90;;;;;;5051778;28;20266;-65
2021/06/28 02:09:22;;;;;;;2.90;2.70;;;22.70;62.80;;;;;;5051956;28;20193;-65
2021/06/28 02:11:48;;;;;;;3.10;2.90;;;22.70;62.90;;;;;;5051068;28;20187;-65
2021/06/28 02:14:14;;;;;;;3.03;2.83;;;22.70;62.90;;;;;;5051578;28;20599;-65
2021/06/28 02:16:43;;;;;;;2.97;2.78;;;22.70;62.90;;;;;;5051409;28;20306;-64
2021/06/28 02:19:09;;;;;;;3.08;2.88;;;22.70;63.80;;;;;;5050999;28;20232;-65
2021/06/28 02:21:34;;;;;;;3.03;2.83;;;22.70;62.90;;;;;;5051407;28;20171;-65
2021/06/28 02:24:00;;;;;;;3.17;2.97;;;22.70;62.90;;;;;;5051841;28;20167;-65
2021/06/28 02:26:25;;;;;;;3.17;2.88;;;22.70;63.00;;;;;;5051041;28;20212;-65
2021/06/28 02:28:51;;;;;;;3.15;2.95;;;22.70;62.90;;;;;;5051351;28;20260;-65
2021/06/28 02:31:21;;;;;;;3.20;3.00;;;22.70;63.00;;;;;;5051599;28;20611;-65
2021/06/28 02:33:47;;;;;;;3.03;2.83;;;22.70;63.00;;;;;;5051544;28;20175;-66
2021/06/28 02:36:13;;;;;;;3.13;2.92;;;22.70;63.00;;;;;;5051479;28;20180;-66
2021/06/28 02:38:39;;;;;;;3.03;2.83;;;22.70;63.00;;;;;;5050783;28;20179;-66
2021/06/28 02:41:05;;;;;;;3.05;2.75;;;22.70;62.90;;;;;;5051737;28;20229;-66
2021/06/28 02:43:30;;;;;;;2.92;2.72;;;22.70;63.00;;;;;;5051070;28;20171;-66
2021/06/28 02:45:56;;;;;;;3.10;2.90;;;22.70;63.00;;;;;;5050979;28;20454;-66
2021/06/28 02:48:22;;;;;;;3.00;2.80;;;22.60;62.90;;;;;;5051480;28;20178;-65
2021/06/28 02:50:48;;;;;;;3.10;2.90;;;22.70;63.00;;;;;;5051539;28;20183;-65
2021/06/28 02:53:16;;;;;;;3.10;2.90;;;22.70;62.90;;;;;;5050890;28;20240;-66
2021/06/28 02:55:43;;;;;;;3.17;2.97;;;22.60;62.90;;;;;;5051396;28;20186;-66
2021/06/28 02:58:08;;;;;;;3.00;2.80;;;22.70;63.00;;;;;;5051387;28;20215;-66
2021/06/28 03:00:34;;;;;;;3.67;3.20;;;22.70;63.00;;;;;;5050393;28;20202;-66
2021/06/28 03:02:59;;;;;;;3.30;3.10;;;22.60;62.90;;;;;;5051290;28;20648;-66
2021/06/28 03:05:25;;;;;;;3.20;2.90;;;22.60;62.90;;;;;;5055007;28;20172;-66
2021/06/28 03:07:51;;;;;;;3.47;3.20;;;22.60;62.90;;;;;;5054039;28;20408;-66
2021/06/28 03:10:16;;;;;;;3.00;2.80;;;22.60;62.90;;;;;;5055103;28;20175;-66
2021/06/28 03:12:42;;;;;;;2.90;2.70;;;22.60;62.90;;;;;;5054614;28;20183;-66
2021/06/28 03:15:15;;;;;;;3.20;3.00;;;22.60;62.90;;;;;;5054277;28;20194;-66
2021/06/28 03:17:41;;;;;;;3.38;3.10;;;22.60;62.90;;;;;;5054523;28;20210;-66
2021/06/28 03:20:08;;;;;;;3.15;2.92;;;22.60;62.90;;;;;;5054769;28;20183;-65
2021/06/28 03:22:34;;;;;;;3.45;3.25;;;22.60;62.90;;;;;;5053942;28;20237;-65
2021/06/28 03:24:59;;;;;;;3.10;2.90;;;22.60;62.90;;;;;;5054863;28;20278;-65
2021/06/28 03:27:25;;;;;;;2.90;2.60;;;22.60;62.90;;;;;;5054519;28;20183;-65
2021/06/28 03:29:50;;;;;;;2.78;2.60;;;22.60;62.90;;;;;;5053561;28;20271;-65
2021/06/28 03:32:16;;;;;;;3.17;2.90;;;22.60;62.90;;;;;;5054797;28;20234;-65
2021/06/28 03:34:42;;;;;;;3.70;3.40;;;22.60;62.90;;;;;;5053564;28;20683;-66
2021/06/28 03:37:08;;;;;;;3.20;3.00;;;22.60;62.90;;;;;;5054640;28;20202;-67
2021/06/28 03:39:33;;;;;;;3.25;3.05;;;22.60;62.90;;;;;;5054180;28;20236;-67
2021/06/28 03:41:59;;;;;;;3.50;3.30;;;22.60;62.90;;;;;;5053711;28;20915;-66
2021/06/28 03:44:24;;;;;;;2.90;2.70;;;22.60;62.90;;;;;;5054399;28;20167;-66
2021/06/28 03:46:50;;;;;;;3.35;3.15;;;22.60;62.90;;;;;;5053923;28;20187;-66
2021/06/28 03:49:15;;;;;;;3.90;3.22;;;22.60;62.90;;;;;;5053708;28;20199;-65
2021/06/28 03:51:41;;;;;;;3.00;2.80;;;22.60;62.90;;;;;;5053902;28;20194;-66
2021/06/28 03:54:07;;;;;;;2.95;2.72;;;22.60;62.90;;;;;;5054252;28;20176;-65
2021/06/28 03:56:32;;;;;;;3.55;3.25;;;22.60;62.90;;;;;;5053168;28;20219;-66
2021/06/28 03:58:58;;;;;;;3.30;3.10;;;22.60;62.90;;;;;;5053976;28;20621;-66
2021/06/28 04:01:23;;;;;;;2.90;2.70;;;22.60;62.90;;;;;;5054021;28;20197;-66
2021/06/28 04:03:51;;;;;;;3.22;3.03;;;22.60;62.90;;;;;;5053226;28;20225;-66
2021/06/28 04:06:16;;;;;;;2.95;2.75;;;22.60;62.90;;;;;;5054018;28;20190;-66
2021/06/28 04:08:42;;;;;;;3.22;3.03;;;22.60;62.90;;;;;;5053740;28;20171;-65
2021/06/28 04:11:07;;;;;;;3.67;3.17;;;22.60;62.90;;;;;;5053243;28;20183;-66
2021/06/28 04:13:33;;;;;;;3.25;3.05;;;22.60;62.90;;;;;;5053462;28;20305;-66
2021/06/28 04:15:58;;;;;;;3.50;3.30;;;22.60;62.80;;;;;;5053258;28;20270;-66
2021/06/28 04:18:24;;;;;;;3.53;3.22;;;22.60;62.80;;;;;;5052907;28;20673;-65
2021/06/28 04:20:50;;;;;;;3.30;3.10;;;22.60;62.80;;;;;;5053586;28;20194;-66
2021/06/28 04:23:15;;;;;;;3.90;3.60;;;22.60;62.80;;;;;;5053787;28;20544;-66
2021/06/28 04:25:41;;;;;;;3.05;2.85;;;22.60;62.70;;;;;;5034450;28;20175;-65
2021/06/28 04:28:06;;;;;;;3.50;3.30;;;22.60;62.70;;;;;;5053738;28;20662;-65
2021/06/28 04:30:32;;;;;;;3.80;3.50;;;22.60;62.70;;;;;;5053146;28;20229;-66
2021/06/28 04:32:58;;;;;;;3.78;3.47;;;22.60;62.70;;;;;;5052809;28;20578;-66
2021/06/28 04:35:27;;;;;;;3.53;3.33;;;22.60;62.70;;;;;;5053743;28;20167;-66
2021/06/28 04:37:53;;;;;;;3.45;3.17;;;22.60;62.70;;;;;;5053211;28;20234;-67
2021/06/28 04:40:20;;;;;;;3.38;3.08;;;22.60;62.70;;;;;;5052700;28;20205;-67
2021/06/28 04:42:46;;;;;;;3.20;3.00;;;22.60;63.50;;;;;;5053232;28;20175;-66
2021/06/28 04:45:12;;;;;;;3.60;3.30;;;22.60;62.60;;;;;;5052383;28;20178;-66
2021/06/28 04:47:37;;;;;;;3.67;3.47;;;22.70;62.60;;;;;;5053491;28;20206;-66
2021/06/28 04:50:04;;;;;;;3.28;3.08;;;22.70;62.50;;;;;;5053673;28;20194;-66
2021/06/28 04:52:33;;;;;;;4.05;3.40;;;22.70;62.50;;;;;;5052356;28;20237;-66
2021/06/28 04:55:02;;;;;;;3.70;3.40;;;22.70;62.50;;;;;;5053083;28;20289;-66
2021/06/28 04:57:27;;;;;;;4.07;3.67;;;22.70;62.40;;;;;;5052929;28;20373;-66
2021/06/28 04:59:53;;;;;;;3.47;3.28;;;22.70;62.40;;;;;;5052317;28;20708;-66
2021/06/28 05:02:18;;;;;;;3.50;3.20;;;22.70;62.40;;;;;;5053449;28;20241;-66
2021/06/28 05:04:47;;;;;;;3.40;3.20;;;22.70;62.30;;;;;;5052359;28;20171;-66
2021/06/28 05:07:12;;;;;;;4.00;3.70;;;22.70;62.40;;;;;;5052221;28;20175;-65
2021/06/28 05:09:38;;;;;;;3.35;3.15;;;22.70;62.30;;;;;;5052716;28;20175;-66
2021/06/28 05:12:03;;;;;;;3.92;3.65;;;22.70;62.30;;;;;;5052652;28;20175;-66
2021/06/28 05:14:29;;;;;;;3.58;3.28;;;22.70;62.30;;;;;;5052137;28;20194;-66
2021/06/28 05:16:54;;;;;;;3.13;2.92;;;22.70;62.30;;;;;;5053171;28;20349;-66
2021/06/28 05:19:20;;;;;;;3.20;3.00;;;22.70;62.20;;;;;;5052858;28;20254;-65
2021/06/28 05:21:45;;;;;;;3.22;3.00;;;22.70;62.30;;;;;;5051767;28;20577;-65
2021/06/28 05:24:11;;;;;;;3.58;3.38;;;22.70;62.20;;;;;;5052401;28;20171;-65
2021/06/28 05:26:36;;;;;;;3.38;3.17;;;22.70;62.30;;;;;;5051495;28;20530;-65
2021/06/28 05:29:02;;;;;;;3.00;2.80;;;22.70;62.30;;;;;;5051895;28;20658;-65
2021/06/28 05:31:28;;;;;;;3.40;3.08;;;22.70;62.30;;;;;;5052312;28;20219;-66
2021/06/28 05:33:53;;;;;;;3.83;3.53;;;22.70;62.30;;;;;;5052402;28;20205;-66
2021/06/28 05:36:20;;;;;;;3.25;3.05;;;22.70;62.30;;;;;;5051757;28;20263;-67
2021/06/28 05:38:45;;;;;;;3.10;2.90;;;22.80;62.40;;;;;;5051898;28;20262;-67
2021/06/28 05:41:11;;;;;;;3.38;3.17;;;22.70;62.30;;;;;;5052336;28;20258;-67
2021/06/28 05:43:36;;;;;;;3.20;3.00;;;22.70;62.40;;;;;;5051140;28;20732;-66
2021/06/28 05:46:02;;;;;;;3.25;3.05;;;22.70;62.40;;;;;;5052315;28;20179;-66
2021/06/28 05:48:27;;;;;;;3.20;2.90;;;22.70;62.40;;;;;;5051847;28;20179;-66
2021/06/28 05:50:53;;;;;;;3.22;3.03;;;22.70;62.40;;;;;;5052092;28;20182;-65
2021/06/28 05:53:18;;;;;;;3.67;3.38;;;22.70;62.40;;;;;;5052457;28;20343;-66
2021/06/28 05:55:44;;;;;;;3.13;2.88;;;22.70;62.40;;;;;;5051175;28;20564;-66
2021/06/28 05:58:09;;;;;;;3.40;3.20;;;22.70;62.40;;;;;;5051748;28;20210;-66
2021/06/28 06:00:35;;;;;;;3.40;3.15;;;22.80;62.40;;;;;;5051779;28;20587;-66
2021/06/28 06:03:00;;;;;;;3.40;3.20;;;22.70;62.40;;;;;;5051123;28;20179;-66
2021/06/28 06:05:27;;;;;;;3.30;3.00;;;22.80;62.40;;;;;;5051879;28;20171;-66
2021/06/28 06:07:53;;;;;;;3.90;3.60;;;22.70;62.40;;;;;;5051648;28;20206;-67
2021/06/28 06:10:19;;;;;;;3.40;3.20;;;22.80;62.40;;;;;;5051101;28;20595;-66
2021/06/28 06:12:45;;;;;;;3.42;3.22;;;22.80;62.30;;;;;;5051468;28;20171;-66
2021/06/28 06:15:11;;;;;;;3.80;3.53;;;22.80;62.30;;;;;;5051607;28;20650;-67
2021/06/28 06:17:37;;;;;;;3.17;2.97;;;22.80;62.30;;;;;;5050594;28;20668;-66
2021/06/28 06:20:06;;;;;;;4.00;3.70;;;22.80;62.40;;;;;;5052072;28;20175;-65
2021/06/28 06:22:32;;;;;;;3.97;3.67;;;22.80;62.30;;;;;;5051480;28;20178;-66
2021/06/28 06:24:57;;;;;;;3.50;3.30;;;22.80;62.30;;;;;;5051244;28;20173;-65
2021/06/28 06:27:23;;;;;;;3.35;3.15;;;22.80;62.30;;;;;;5052426;28;20644;-66
2021/06/28 06:29:48;;;;;;;3.45;3.25;;;22.80;62.30;;;;;;5051246;28;20265;-66
2021/06/28 06:32:14;;;;;;;3.90;3.60;;;22.80;62.30;;;;;;5051398;28;20175;-66
2021/06/28 06:34:39;;;;;;;3.50;3.30;;;22.80;62.40;;;;;;5051306;28;20611;-66
2021/06/28 06:37:05;;;;;;;3.47;3.25;;;22.80;62.30;;;;;;5051574;28;20203;-67
2021/06/28 06:39:31;;;;;;;3.70;3.42;;;22.90;62.30;;;;;;5054612;28;20179;-67
2021/06/28 06:41:57;;;;;;;3.45;3.25;;;22.80;62.40;;;;;;5055739;28;20224;-67
2021/06/28 06:44:22;;;;;;;3.78;3.28;;;22.80;62.40;;;;;;5055875;28;20206;-67
2021/06/28 06:46:48;;;;;;;4.03;3.70;;;22.80;63.10;;;;;;5054663;28;20198;-66
2021/06/28 06:49:13;;;;;;;3.47;3.28;;;22.80;62.30;;;;;;5054459;28;20195;-66
2021/06/28 06:51:39;;;;;;;3.58;3.33;;;22.80;62.30;;;;;;5054525;28;20178;-65
2021/06/28 06:54:05;;;;;;;5.13;4.43;;;22.90;62.40;;;;;;5055462;28;20175;-64
2021/06/28 06:56:31;;;;;;;5.00;4.32;;;22.90;62.60;;;;;;5054977;28;20535;-66
2021/06/28 06:58:56;;;;;;;5.00;4.47;;;22.90;63.10;;;;;;5054618;28;20469;-66
2021/06/28 07:01:22;;;;;;;4.75;4.35;;;22.90;62.90;;;;;;5055377;28;20189;-66
2021/06/28 07:03:47;;;;;;;4.85;4.45;;;22.90;62.90;;;;;;5054127;28;20277;-65
2021/06/28 07:06:13;;;;;;;5.03;4.60;;;22.90;62.80;;;;;;5054523;28;20637;-64
2021/06/28 07:08:39;;;;;;;4.85;4.45;;;22.90;62.70;;;;;;5054865;28;20574;-65
2021/06/28 07:11:06;;;;;;;5.20;4.03;;;22.90;62.70;;;;;;5055139;28;20179;-65
2021/06/28 07:13:33;;;;;;;4.85;4.45;;;23.00;62.70;;;;;;5054043;28;20629;-66
2021/06/28 07:15:58;;;;;;;5.22;4.65;;;23.00;62.70;;;;;;5055375;28;20183;-65
2021/06/28 07:18:24;;;;;;;4.93;4.53;;;23.00;62.80;;;;;;5055094;28;20211;-65
2021/06/28 07:20:50;;;;;;;5.30;4.60;;;23.00;62.80;;;;;;5053839;28;20190;-65
2021/06/28 07:23:15;;;;;;;4.47;4.13;;;23.00;62.80;;;;;;5054850;28;20548;-65
2021/06/28 07:25:41;;;;;;;4.28;3.97;;;23.00;62.70;;;;;;5054453;28;20544;-65
2021/06/28 07:28:09;;;;;;;5.00;4.60;;;23.00;62.80;;;;;;5053976;28;20202;-64
2021/06/28 07:30:34;;;;;;;4.57;4.13;;;23.00;62.70;;;;;;5054066;28;20585;-65
2021/06/28 07:32:59;;;;;;;5.47;4.93;;;23.00;62.70;;;;;;5054650;28;20179;-66
2021/06/28 07:35:25;;;;;;;5.30;4.63;;;23.00;62.70;;;;;;5053615;28;20205;-66
2021/06/28 07:37:51;;;;;;;4.40;4.10;;;23.10;62.80;;;;;;5054051;28;20261;-66
2021/06/28 07:40:18;;;;;;;5.07;4.65;;;23.10;62.70;;;;;;5054224;28;20200;-66
2021/06/28 07:42:44;;;;;;;5.90;5.38;;;23.10;62.70;;;;;;5053338;28;20588;-66
2021/06/28 07:45:10;;;;;;;4.40;4.00;;;23.10;62.70;;;;;;5054505;28;20227;-66
2021/06/28 07:47:36;;;;;;;4.25;3.95;;;23.10;62.70;;;;;;5035988;28;20208;-65
2021/06/28 07:50:03;;;;;;;4.60;4.30;;;23.20;62.70;;;;;;5052777;28;20265;-65
2021/06/28 07:52:29;;;;;;;4.35;4.05;;;23.10;62.70;;;;;;5054268;28;20186;-65
2021/06/28 07:54:55;;;;;;;4.68;4.28;;;23.10;62.70;;;;;;5053462;28;20194;-65
2021/06/28 07:57:21;;;;;;;5.03;4.55;;;23.20;62.70;;;;;;5054259;28;20669;-66
2021/06/28 07:59:46;;;;;;;5.03;4.53;;;23.20;62.70;;;;;;5053879;28;20530;-66
2021/06/28 08:02:12;;;;;;;4.18;3.88;;;23.20;62.70;;;;;;5053356;28;20175;-65
2021/06/28 08:04:37;;;;;;;4.47;4.18;;;23.20;62.70;;;;;;5053460;28;20248;-65
2021/06/28 08:07:03;;;;;;;4.80;4.40;;;23.20;62.70;;;;;;5053904;28;20265;-65
2021/06/28 08:09:29;;;;;;;4.35;4.00;;;23.20;62.70;;;;;;5053076;28;20266;-65
2021/06/28 08:11:58;;;;;;;4.72;4.30;;;23.20;62.80;;;;;;5054031;28;20273;-65
2021/06/28 08:14:24;;;;;;;5.05;4.63;;;23.20;62.80;;;;;;5054173;28;20190;-65
2021/06/28 08:16:49;;;;;;;4.40;4.03;;;23.20;62.80;;;;;;5052737;28;20215;-66
2021/06/28 08:19:15;;;;;;;4.63;4.22;;;23.20;62.80;;;;;;5053795;28;20292;-65
2021/06/28 08:21:41;;;;;;;5.63;4.50;;;23.20;62.80;;;;;;5053417;28;20199;-65
2021/06/28 08:24:07;;;;;;;7.53;3.90;;;23.30;62.80;;;;;;5053103;28;20179;-65
2021/06/28 08:26:33;;;;;;;4.07;3.78;;;23.30;62.80;;;;;;5053398;28;20183;-65
2021/06/28 08:29:02;;;;;;;4.88;4.47;;;23.30;62.70;;;;;;5053662;28;20201;-65
2021/06/28 08:31:28;;;;;;;4.68;4.38;;;23.30;62.80;;;;;;5052673;28;20288;-65
2021/06/28 08:33:54;;;;;;;4.07;3.78;;;23.30;62.70;;;;;;5053174;28;20171;-65
2021/06/28 08:36:19;;;;;;;4.90;4.50;;;23.30;62.70;;;;;;5053253;28;20190;-66
2021/06/28 08:38:45;;;;;;;4.53;4.22;;;23.40;62.80;;;;;;5052509;28;20175;-66
2021/06/28 08:41:15;;;;;;;4.78;4.28;;;23.40;62.80;;;;;;5053319;28;20236;-66
2021/06/28 08:43:45;;;;;;;4.72;4.10;;;23.40;62.80;;;;;;5053019;28;20177;-66
2021/06/28 08:46:11;;;;;;;4.70;4.30;;;23.40;62.70;;;;;;5052554;28;20257;-65
2021/06/28 08:48:36;;;;;;;3.90;3.60;;;23.40;62.70;;;;;;5018689;28;20214;-66
2021/06/28 08:51:02;;;;;;;5.03;4.30;;;23.40;62.70;;;;;;5035132;28;20544;-65
2021/06/28 08:53:28;;;;;;;4.40;4.10;;;23.40;62.70;;;;;;5017847;28;20262;-65
2021/06/28 08:55:53;;;;;;;4.65;4.25;;;23.40;62.70;;;;;;5052549;28;20175;-65
2021/06/28 08:58:19;;;;;;;4.35;4.05;;;23.40;62.70;;;;;;5051947;28;20230;-64
2021/06/28 09:00:45;;;;;;;4.30;4.00;;;23.50;62.70;;;;;;5052331;28;20191;-65
2021/06/28 09:03:11;;;;;;;4.50;4.10;;;23.50;62.60;;;;;;5052886;28;20203;-65
2021/06/28 09:05:53;;;;;;;4.50;4.20;;;23.50;62.60;;;;;;5051674;28;20586;-65
2021/06/28 09:08:20;;;;;;;4.90;4.50;;;23.50;62.70;;;;;;5035176;28;20182;-65
2021/06/28 09:10:45;;;;;;;4.20;3.90;;;23.50;62.60;;;;;;5052675;28;20198;-65
2021/06/28 09:13:11;;;;;;;4.65;3.80;;;23.50;62.60;;;;;;5051760;28;20638;-65
2021/06/28 09:15:41;;;;;;;4.47;4.07;;;23.60;62.60;;;;;;5052339;28;20175;-66
2021/06/28 09:18:17;;;;;;;4.55;4.25;;;23.60;62.60;;;;;;5052406;28;20215;-65
2021/06/28 09:20:43;;;;;;;4.38;3.90;;;23.60;62.60;;;;;;5051770;28;20179;-65
2021/06/28 09:23:19;;;;;;;4.25;3.95;;;23.60;62.50;;;;;;5052594;28;20644;-65
2021/06/28 09:25:44;;;;;;;4.57;4.25;;;23.60;62.50;;;;;;5052053;28;20190;-65
2021/06/28 09:28:10;;;;;;;4.28;3.90;;;23.60;62.50;;;;;;5051673;28;20167;-64
2021/06/28 09:30:54;;;;;;;4.22;3.72;;;23.60;62.50;;;;;;5017502;28;20254;-65
2021/06/28 09:33:20;;;;;;;5.07;4.57;;;23.70;62.50;;;;;;5052149;28;20672;-66
2021/06/28 09:35:46;;;;;;;3.65;3.42;;;23.70;62.50;;;;;;5052047;28;20183;-66
2021/06/28 09:38:38;;;;;;;3.97;3.67;;;23.70;62.40;;;;;;5052053;28;20629;-66
2021/06/28 09:41:25;;;;;;;4.50;4.20;;;23.70;62.40;;;;;;5051451;28;20178;-66
2021/06/28 09:43:59;;;;;;;4.68;4.28;;;23.60;62.70;;;;;;5051991;28;20171;-65
2021/06/28 09:46:25;;;;;;;5.00;4.60;;;23.60;62.90;;;;;;5052166;28;20187;-66
2021/06/28 09:48:52;;;;;;;4.78;4.38;;;23.60;63.00;;;;;;5051067;28;20182;-66
2021/06/28 09:51:27;;;;;;;4.20;3.90;;;23.50;63.00;;;;;;5051861;28;20171;-65
2021/06/28 09:54:15;;;;;;;4.25;3.95;;;23.50;63.10;;;;;;5051895;28;20186;-65
2021/06/28 09:56:50;;;;;;;4.70;4.30;;;23.50;63.20;;;;;;5051091;28;20274;-66
2021/06/28 09:59:37;;;;;;;4.50;4.18;;;23.50;63.30;;;;;;5051903;28;20248;-66
2021/06/28 10:02:25;;;;;;;4.70;4.30;;;23.50;63.30;;;;;;5051833;28;20269;-66
2021/06/28 10:07:39;;;;;;;4.10;3.85;;;23.40;63.30;;;;;;5051871;28;20231;-65
2021/06/28 10:10:08;;;;;;;4.95;4.55;;;23.40;63.40;;;;;;5051155;28;20229;-65
2021/06/28 10:12:34;;;;;;;4.68;4.28;;;23.40;63.40;;;;;;5051262;28;20176;-66
2021/06/28 10:15:00;;;;;;;4.90;4.50;;;23.40;63.30;;;;;;5051743;28;20231;-65
2021/06/28 10:17:26;;;;;;;4.63;4.22;;;23.40;63.40;;;;;;5050980;28;20248;-65
2021/06/28 10:19:52;;;;;;;5.18;4.68;;;23.40;63.30;;;;;;5051421;28;20178;-65
2021/06/28 10:22:17;;;;;;;4.65;4.35;;;23.40;63.30;;;;;;5051570;28;20185;-64
2021/06/28 10:24:43;;;;;;;4.75;4.32;;;23.40;63.30;;;;;;5050547;28;20186;-65
2021/06/28 10:27:09;;;;;;;5.05;4.65;;;23.40;63.40;;;;;;5051818;28;20189;-64
2021/06/28 10:29:34;;;;;;;4.72;4.43;;;23.40;63.40;;;;;;5051179;28;20673;-65
2021/06/28 10:32:19;;;;;;;4.50;4.10;;;23.40;63.40;;;;;;5051624;28;20610;-65
2021/06/28 10:34:49;;;;;;;4.75;4.40;;;23.40;63.40;;;;;;5016840;28;20179;-66
2021/06/28 10:37:44;;;;;;;4.70;4.30;;;23.40;63.40;;;;;;5050629;28;20284;-67
2021/06/28 10:40:20;;;;;;;4.75;4.35;;;23.40;63.30;;;;;;5051556;28;20261;-66
2021/06/28 10:42:47;;;;;;;4.75;4.35;;;23.40;63.20;;;;;;5051239;28;20254;-66
2021/06/28 10:45:13;;;;;;;5.32;4.75;;;23.40;63.30;;;;;;5050582;28;20179;-66
2021/06/28 10:47:40;;;;;;;4.32;4.03;;;23.40;63.40;;;;;;5051083;28;20194;-66
2021/06/28 10:50:10;;;;;;;4.78;4.47;;;23.40;63.40;;;;;;5051229;28;20611;-65
2021/06/28 10:52:38;;;;;;;4.32;3.97;;;23.40;63.60;;;;;;5050443;28;20179;-65
2021/06/28 10:55:23;;;;;;;4.90;4.50;;;23.40;63.50;;;;;;5051378;28;20206;-65
2021/06/28 10:57:52;;;;;;;4.85;4.47;;;23.40;63.60;;;;;;5050268;28;20280;-65
2021/06/28 11:00:20;;;;;;;4.45;4.15;;;23.40;63.50;;;;;;5051124;28;20167;-66
2021/06/28 11:02:46;;;;;;;5.03;4.53;;;23.40;63.70;;;;;;5017440;28;20206;-65
2021/06/28 11:05:11;;;;;;;4.47;4.18;;;23.40;63.70;;;;;;5032584;28;20179;-65
2021/06/28 11:07:50;;;;;;;4.43;4.10;;;23.40;63.70;;;;;;5050949;28;20617;-65
2021/06/28 11:10:35;;;;;;;4.78;4.35;;;23.30;63.80;;;;;;5054207;28;20182;-64
2021/06/28 11:13:23;;;;;;;4.40;4.00;;;23.30;64.00;;;;;;5050795;28;20186;-65
2021/06/28 11:15:49;;;;;;;4.82;4.38;;;23.30;63.90;;;;;;5031124;28;20474;-64
2021/06/28 11:18:30;;;;;;;4.60;4.20;;;23.30;63.90;;;;;;5042258;28;20206;-64
2021/06/28 11:20:55;;;;;;;4.70;4.30;;;23.30;63.90;;;;;;5050242;28;20179;-65
2021/06/28 11:23:21;;;;;;;4.78;4.38;;;23.30;63.90;;;;;;5050777;28;20174;-64
2021/06/28 11:25:51;;;;;;;5.30;4.80;;;23.30;63.90;;;;;;5053223;28;20614;-64
2021/06/28 11:28:18;;;;;;;5.18;4.47;;;23.30;63.90;;;;;;5072036;28;20577;-64
2021/06/28 11:30:49;;;;;;;4.95;4.50;;;23.20;63.90;;;;;;5074092;28;20226;-64
2021/06/28 11:33:14;;;;;;;5.28;4.80;;;23.20;63.90;;;;;;5073820;28;20189;-65
2021/06/28 11:35:50;;;;;;;5.10;4.60;;;23.20;63.90;;;;;;5074012;28;20174;-65
2021/06/28 11:38:18;;;;;;;5.15;4.65;;;23.20;63.90;;;;;;5074252;28;20216;-65
2021/06/28 11:40:46;;;;;;;4.63;4.22;;;23.20;63.90;;;;;;5073458;28;20192;-65
2021/06/28 11:43:12;;;;;;;4.97;4.47;;;23.20;63.90;;;;;;5073909;28;20191;-65
2021/06/28 11:45:51;;;;;;;4.82;4.43;;;23.20;64.00;;;;;;5054063;28;20184;-65
2021/06/28 11:48:35;;;;;;;4.47;4.07;;;23.20;64.10;;;;;;5053741;28;20179;-64
2021/06/28 11:51:22;;;;;;;7.00;4.50;;;23.20;64.10;;;;;;5054380;28;20189;-69
2021/06/28 11:53:55;;;;;;;5.80;5.05;;;23.20;64.20;;;;;;5038730;28;20182;-65
2021/06/28 11:56:41;;;;;;;7.35;4.75;;;23.20;64.50;;;;;;5053236;28;20175;-65
2021/06/28 11:59:13;;;;;;;4.88;4.38;;;23.20;64.20;;;;;;5054042;28;20500;-65
2021/06/28 12:01:39;;;;;;;7.82;5.05;;;23.20;64.30;;;;;;5053036;28;20178;-64
2021/06/28 12:04:05;;;;;;;6.28;4.93;;;23.20;64.40;;;;;;5054111;28;20179;-64
2021/06/28 12:06:33;;;;;;;4.78;4.38;;;23.20;64.60;;;;;;5053565;28;20697;-65
2021/06/28 12:09:14;;;;;;;5.28;4.88;;;23.20;64.70;;;;;;5052982;28;20675;-64
2021/06/28 12:11:51;;;;;;;5.15;4.75;;;23.20;64.70;;;;;;5053606;28;20183;-65
2021/06/28 12:14:39;;;;;;;5.32;4.72;;;23.20;64.70;;;;;;5053765;28;20244;-64
2021/06/28 12:17:09;;;;;;;5.20;4.70;;;23.20;64.60;;;;;;5052827;28;20579;-64
2021/06/28 12:19:35;;;;;;;5.30;4.53;;;23.20;64.50;;;;;;5072235;28;20182;-64
2021/06/28 12:22:14;;;;;;;4.72;4.38;;;23.20;64.50;;;;;;5073545;28;20551;-63
2021/06/28 12:24:44;;;;;;;4.95;4.22;;;23.30;64.50;;;;;;5073259;28;20651;-63
2021/06/28 12:27:12;;;;;;;5.35;4.00;;;23.30;64.50;;;;;;5073490;28;20633;-64
2021/06/28 12:29:44;;;;;;;6.00;4.53;;;23.30;64.50;;;;;;5072167;28;20256;-63
2021/06/28 12:32:30;;;;;;;5.90;4.38;;;23.30;64.40;;;;;;5073601;28;20273;-64
2021/06/28 12:34:59;;;;;;;4.97;4.57;;;23.30;64.40;;;;;;5073253;28;20174;-64
2021/06/28 12:37:39;;;;;;;5.05;4.55;;;23.30;64.20;;;;;;5072179;28;20245;-64
2021/06/28 12:40:32;;;;;;;4.97;4.47;;;23.30;64.20;;;;;;5071761;28;20185;-65
2021/06/28 12:43:01;;;;;;;6.90;4.28;;;23.40;64.30;;;;;;5072929;28;20532;-65
2021/06/28 12:45:48;;;;;;;5.20;4.50;;;23.40;64.30;;;;;;5072588;28;20185;-65
2021/06/28 12:48:18;;;;;;;5.95;4.50;;;23.40;64.30;;;;;;5073421;28;20175;-65
2021/06/28 12:50:50;;;;;;;5.05;4.60;;;23.40;64.30;;;;;;5054644;28;20257;-64
2021/06/28 12:53:16;;;;;;;5.80;4.85;;;23.40;64.20;;;;;;5073206;28;20174;-64